createdAt,value
2019-04-03T00:01:42.185Z,26.75
2019-04-03T00:04:36.901Z,26.57
2019-04-03T00:07:32.187Z,34.43
2019-04-03T00:10:29.088Z,30.92
2019-04-03T00:13:24.496Z,29.42
2019-04-03T00:16:19.743Z,28.85
2019-04-03T00:19:17.325Z,32.05
2019-04-03T00:22:11.688Z,30.37
2019-04-03T00:25:11.770Z,31.60
2019-04-03T00:28:13.801Z,31.57
2019-04-03T00:31:12.469Z,35.33
2019-04-03T00:34:08.767Z,31.97
2019-04-03T00:37:04.244Z,32.65
2019-04-03T00:40:00.513Z,32.95
2019-04-03T00:42:55.714Z,33.73
2019-04-03T00:45:55.112Z,32.15
2019-04-03T00:49:17.484Z,36.38
2019-04-03T00:52:10.519Z,35.88
2019-04-03T00:55:37.616Z,35.13
2019-04-03T00:58:46.389Z,33.38
2019-04-03T01:01:54.754Z,34.75
2019-04-03T01:04:48.888Z,36.45
2019-04-03T01:07:49.757Z,34.80
2019-04-03T01:11:00.045Z,35.55
2019-04-03T01:14:01.627Z,36.38
2019-04-03T01:17:03.765Z,37.20
2019-04-03T01:19:57.213Z,37.25
2019-04-03T01:22:54.155Z,37.42
2019-04-03T01:26:14.403Z,36.33
2019-04-03T01:29:42.597Z,36.30
2019-04-03T01:32:42.239Z,36.35
2019-04-03T01:35:37.635Z,38.75
2019-04-03T01:38:34.417Z,36.80
2019-04-03T01:41:29.965Z,36.00
2019-04-03T01:44:25.478Z,35.85
2019-04-03T01:47:21.569Z,35.83
2019-04-03T01:50:18.159Z,36.25
2019-04-03T01:53:13.814Z,36.85
2019-04-03T01:56:10.726Z,35.78
2019-04-03T01:59:07.331Z,36.10
2019-04-03T02:02:04.717Z,36.00
2019-04-03T02:05:00.238Z,36.70
2019-04-03T02:07:55.585Z,35.45
2019-04-03T02:10:58.189Z,36.35
2019-04-03T02:13:52.062Z,35.43
2019-04-03T02:16:50.079Z,35.95
2019-04-03T02:19:49.219Z,36.17
2019-04-03T02:22:47.992Z,37.03
2019-04-03T02:25:43.072Z,36.80
2019-04-03T02:28:41.937Z,35.58
2019-04-03T02:31:38.603Z,39.42
2019-04-03T02:34:35.466Z,36.80
2019-04-03T02:37:30.797Z,33.65
2019-04-03T02:40:26.257Z,37.83
2019-04-03T02:43:21.936Z,39.35
2019-04-03T02:46:17.338Z,40.67
2019-04-03T02:49:13.046Z,42.43
2019-04-03T02:52:08.465Z,43.50
2019-04-03T02:55:08.098Z,43.30
2019-04-03T02:58:04.006Z,40.58
2019-04-03T03:01:05.569Z,42.62
2019-04-03T03:03:58.094Z,40.70
2019-04-03T03:06:53.165Z,44.03
2019-04-03T03:09:49.758Z,42.30
2019-04-03T03:12:48.618Z,44.00
2019-04-03T03:15:46.798Z,40.15
2019-04-03T03:18:46.034Z,41.73
2019-04-03T03:21:44.661Z,36.63
2019-04-03T03:24:39.675Z,41.42
2019-04-03T03:27:35.691Z,35.10
2019-04-03T03:30:41.868Z,31.10
2019-04-03T03:34:05.227Z,30.88
2019-04-03T03:37:03.148Z,37.93
2019-04-03T03:39:58.631Z,31.48
2019-04-03T03:42:56.067Z,28.12
2019-04-03T03:45:54.153Z,31.70
2019-04-03T03:48:51.145Z,28.85
2019-04-03T03:51:47.045Z,27.95
2019-04-03T03:54:53.689Z,33.65
2019-04-03T03:57:54.178Z,33.70
2019-04-03T04:00:59.521Z,34.00
2019-04-03T04:04:02.237Z,33.33
2019-04-03T04:07:12.647Z,32.08
2019-04-03T04:10:26.278Z,31.27
2019-04-03T04:13:27.737Z,30.20
2019-04-03T04:16:38.446Z,29.25
2019-04-03T04:19:38.532Z,29.98
2019-04-03T04:22:38.497Z,28.77
2019-04-03T04:26:03.764Z,29.30
2019-04-03T04:28:59.538Z,27.90
2019-04-03T04:31:56.223Z,27.70
2019-04-03T04:34:56.861Z,29.50
2019-04-03T04:37:55.987Z,26.23
2019-04-03T04:40:51.559Z,30.92
2019-04-03T04:43:47.962Z,34.43
2019-04-03T04:46:44.990Z,34.63
2019-04-03T04:49:40.507Z,35.58
2019-04-03T04:52:35.643Z,37.83
2019-04-03T04:55:31.557Z,37.50
2019-04-03T04:58:27.839Z,43.00
2019-04-03T05:01:25.946Z,39.03
2019-04-03T05:04:25.164Z,37.90
2019-04-03T05:07:23.732Z,40.70
2019-04-03T05:10:19.754Z,38.30
2019-04-03T05:13:17.142Z,38.23
2019-04-03T05:17:20.744Z,41.23
2019-04-03T05:20:31.327Z,36.98
2019-04-03T05:23:29.711Z,39.55
2019-04-03T05:26:49.424Z,35.92
2019-04-03T05:29:44.013Z,36.33
2019-04-03T05:32:44.555Z,36.15
2019-04-03T05:35:52.350Z,36.80
2019-04-03T05:38:46.797Z,34.55
2019-04-03T05:41:47.304Z,35.98
2019-04-03T05:45:05.863Z,36.25
2019-04-03T05:48:03.987Z,36.28
2019-04-03T05:51:31.454Z,36.73
2019-04-03T05:54:44.358Z,38.58
2019-04-03T05:58:11.619Z,41.28
2019-04-03T06:09:39.154Z,39.98
2019-04-03T06:16:24.818Z,41.83
2019-04-03T06:19:51.161Z,40.73
2019-04-03T06:23:12.122Z,39.60
2019-04-03T06:30:24.921Z,39.10
2019-04-03T06:41:42.707Z,38.23
2019-04-03T06:44:27.299Z,37.38
2019-04-03T06:47:33.858Z,38.28
2019-04-03T07:02:33.159Z,36.23
2019-04-03T07:05:58.982Z,35.75
2019-04-03T07:09:01.189Z,35.90
2019-04-03T07:12:05.101Z,38.70
2019-04-03T07:15:00.907Z,38.53
2019-04-03T07:17:56.121Z,37.17
2019-04-03T07:20:53.608Z,37.60
2019-04-03T07:23:49.037Z,33.75
2019-04-03T07:26:45.692Z,35.13
2019-04-03T07:29:41.081Z,34.70
2019-04-03T07:32:49.086Z,33.83
2019-04-03T07:36:18.018Z,32.98
2019-04-03T07:39:21.681Z,32.63
2019-04-03T07:42:18.733Z,32.28
2019-04-03T07:45:22.802Z,30.45
2019-04-03T07:48:22.391Z,30.55
2019-04-03T07:51:20.863Z,33.35
2019-04-03T07:54:21.310Z,33.30
2019-04-03T07:57:17.110Z,31.75
2019-04-03T08:00:15.174Z,31.73
2019-04-03T08:03:13.211Z,31.20
2019-04-03T08:06:23.608Z,31.05
2019-04-03T08:09:24.974Z,32.13
2019-04-03T08:12:26.612Z,30.48
2019-04-03T08:15:31.320Z,30.95
2019-04-03T08:18:43.899Z,34.40
2019-04-03T08:23:08.398Z,36.00
2019-04-03T08:26:05.637Z,33.42
2019-04-03T08:30:16.315Z,33.13
2019-04-03T08:37:34.222Z,32.20
2019-04-03T08:40:43.563Z,32.00
2019-04-03T08:43:40.412Z,30.37
2019-04-03T08:46:36.923Z,29.70
2019-04-03T08:49:34.122Z,29.70
2019-04-03T08:52:31.740Z,28.60
2019-04-03T08:55:42.213Z,27.13
2019-04-03T08:58:45.898Z,27.00
2019-04-03T09:01:40.484Z,27.17
2019-04-03T09:04:36.514Z,26.87
2019-04-03T09:07:31.776Z,26.68
2019-04-03T09:10:27.948Z,27.05
2019-04-03T09:13:24.252Z,26.85
2019-04-03T09:16:21.237Z,26.07
2019-04-03T09:19:17.755Z,26.10
2019-04-03T09:22:13.926Z,26.25
2019-04-03T09:25:09.771Z,26.42
2019-04-03T09:28:06.603Z,28.20
2019-04-03T09:31:06.702Z,24.92
2019-04-03T09:34:16.195Z,24.80
2019-04-03T09:37:25.092Z,24.18
2019-04-03T09:40:40.474Z,23.87
2019-04-03T09:44:02.557Z,24.37
2019-04-03T09:50:50.612Z,22.80
2019-04-03T09:53:49.750Z,23.10
2019-04-03T09:56:57.779Z,22.00
2019-04-03T09:59:51.092Z,24.02
2019-04-03T10:02:51.923Z,23.05
2019-04-03T10:05:48.313Z,22.07
2019-04-03T10:08:56.225Z,23.52
2019-04-03T10:11:52.843Z,23.65
2019-04-03T10:15:04.350Z,22.10
2019-04-03T10:17:57.993Z,21.95
2019-04-03T10:20:54.206Z,23.27
2019-04-03T10:23:55.777Z,22.55
2019-04-03T10:27:22.657Z,22.22
2019-04-03T10:30:26.149Z,20.82
2019-04-03T10:33:35.303Z,21.48
2019-04-03T10:36:45.104Z,22.58
2019-04-03T10:40:31.354Z,22.35
2019-04-03T10:48:23.632Z,21.15
2019-04-03T10:51:53.041Z,20.72
2019-04-03T10:55:18.261Z,21.82
2019-04-03T10:58:44.579Z,22.93
2019-04-03T11:01:50.420Z,24.87
2019-04-03T11:04:59.521Z,24.75
2019-04-03T11:08:26.953Z,25.27
2019-04-03T11:19:00.127Z,22.87
2019-04-03T11:22:23.382Z,23.07
2019-04-03T11:28:31.770Z,21.93
2019-04-03T11:31:29.574Z,22.07
2019-04-03T11:34:26.760Z,22.93
2019-04-03T11:37:23.469Z,21.82
2019-04-03T11:40:39.702Z,22.02
2019-04-03T11:43:36.280Z,22.15
2019-04-03T11:46:37.630Z,21.65
2019-04-03T11:49:43.331Z,21.50
2019-04-03T11:52:41.706Z,22.25
2019-04-03T11:55:41.317Z,22.13
2019-04-03T11:58:39.104Z,21.50
2019-04-03T12:02:13.214Z,21.10
2019-04-03T12:05:29.411Z,21.75
2019-04-03T12:09:03.949Z,22.48
2019-04-03T12:12:52.835Z,21.80
2019-04-03T12:15:54.285Z,21.97
2019-04-03T12:18:53.041Z,21.35
2019-04-03T12:21:54.348Z,21.57
2019-04-03T12:25:30.886Z,22.90
2019-04-03T12:28:30.690Z,21.90
2019-04-03T12:31:29.274Z,22.52
2019-04-03T12:34:58.962Z,21.07
2019-04-03T12:38:36.982Z,22.13
2019-04-03T12:41:43.096Z,22.00
2019-04-03T12:44:42.050Z,22.35
2019-04-03T12:47:43.140Z,22.85
2019-04-03T12:50:48.257Z,22.20
2019-04-03T12:53:43.647Z,21.00
2019-04-03T12:56:41.623Z,21.27
2019-04-03T12:59:39.945Z,21.85
2019-04-03T13:02:39.086Z,21.12
2019-04-03T13:05:37.408Z,21.57
2019-04-03T13:08:33.764Z,21.75
2019-04-03T13:11:32.822Z,21.42
2019-04-03T13:14:31.471Z,21.65
2019-04-03T13:17:28.483Z,21.27
2019-04-03T13:20:25.059Z,20.68
2019-04-03T13:23:23.019Z,21.45
2019-04-03T13:26:20.221Z,20.95
2019-04-03T13:29:16.440Z,20.97
2019-04-03T13:32:16.778Z,20.43
2019-04-03T13:35:14.659Z,21.37
2019-04-03T13:38:10.493Z,20.55
2019-04-03T13:41:09.276Z,21.35
2019-04-03T13:44:04.936Z,20.50
2019-04-03T13:47:00.961Z,21.60
2019-04-03T13:49:57.406Z,20.43
2019-04-03T13:52:53.491Z,20.72
2019-04-03T13:55:51.266Z,20.82
2019-04-03T13:58:48.453Z,21.05
2019-04-03T14:01:45.817Z,21.73
2019-04-03T14:04:42.819Z,20.70
2019-04-03T14:07:41.883Z,19.92
2019-04-03T14:10:40.790Z,20.32
2019-04-03T14:13:36.904Z,22.10
2019-04-03T14:16:34.343Z,21.20
2019-04-03T14:19:42.651Z,20.80
2019-04-03T14:22:31.513Z,19.87
2019-04-03T14:25:31.358Z,20.92
2019-04-03T14:28:28.900Z,20.97
2019-04-03T14:31:34.828Z,20.08
2019-04-03T14:34:24.694Z,21.70
2019-04-03T14:37:25.834Z,20.50
2019-04-03T14:40:18.981Z,21.10
2019-04-03T14:43:15.872Z,20.60
2019-04-03T14:46:12.892Z,21.05
2019-04-03T14:49:09.844Z,20.50
2019-04-03T14:52:07.890Z,20.70
2019-04-03T14:55:17.175Z,20.82
2019-04-03T14:58:04.955Z,19.50
2019-04-03T15:01:03.231Z,20.60
2019-04-03T15:04:01.422Z,20.45
2019-04-03T15:07:03.632Z,21.33
2019-04-03T15:09:59.445Z,20.65
2019-04-03T15:12:56.863Z,21.17
2019-04-03T15:15:54.928Z,21.02
2019-04-03T15:18:52.890Z,21.07
2019-04-03T15:21:52.308Z,20.90
2019-04-03T15:24:48.541Z,21.68
2019-04-03T15:27:43.236Z,21.85
2019-04-03T15:30:41.615Z,21.70
2019-04-03T15:33:35.511Z,20.68
2019-04-03T15:36:34.866Z,21.65
2019-04-03T15:39:28.113Z,21.25
2019-04-03T15:42:23.281Z,21.50
2019-04-03T15:45:18.466Z,21.80
2019-04-03T15:48:13.863Z,21.70
2019-04-03T15:51:09.973Z,20.72
2019-04-03T15:54:06.031Z,21.70
2019-04-03T15:57:02.569Z,21.20
2019-04-03T16:00:01.595Z,22.35
2019-04-03T16:02:59.116Z,21.07
2019-04-03T16:05:55.326Z,20.85
2019-04-03T16:08:53.543Z,22.37
2019-04-03T16:11:54.021Z,21.05
2019-04-03T16:14:51.390Z,22.05
2019-04-03T16:17:51.242Z,21.57
2019-04-03T16:20:49.069Z,22.05
2019-04-03T16:23:44.914Z,21.33
2019-04-03T16:26:40.914Z,21.68
2019-04-03T16:29:38.001Z,22.13
2019-04-03T16:32:33.223Z,20.97
2019-04-03T16:35:31.649Z,21.52
2019-04-03T16:38:29.546Z,21.52
2019-04-03T16:41:25.594Z,21.77
2019-04-03T16:44:21.713Z,21.57
2019-04-03T16:47:18.483Z,23.30
2019-04-03T16:50:14.686Z,23.27
2019-04-03T16:53:10.356Z,23.20
2019-04-03T16:56:08.366Z,23.60
2019-04-03T16:59:07.272Z,23.27
2019-04-03T17:02:02.134Z,22.70
2019-04-03T17:04:58.465Z,22.37
2019-04-03T17:07:54.951Z,22.93
2019-04-03T17:10:50.270Z,22.82
2019-04-03T17:13:45.671Z,24.15
2019-04-03T17:16:41.332Z,22.90
2019-04-03T17:19:37.283Z,21.93
2019-04-03T17:22:33.209Z,22.25
2019-04-03T17:25:44.898Z,21.85
2019-04-03T17:28:27.990Z,22.37
2019-04-03T17:31:25.659Z,23.30
2019-04-03T17:34:24.539Z,24.05
2019-04-03T17:37:20.964Z,23.20
2019-04-03T17:40:16.534Z,21.75
2019-04-03T17:43:16.841Z,23.02
2019-04-03T17:46:17.743Z,22.27
2019-04-03T17:49:14.985Z,21.10
2019-04-03T17:52:13.296Z,21.33
2019-04-03T17:55:12.882Z,21.05
2019-04-03T17:58:10.447Z,22.50
2019-04-03T18:01:08.144Z,21.40
2019-04-03T18:04:04.924Z,21.52
2019-04-03T18:07:02.899Z,21.05
2019-04-03T18:10:00.596Z,21.45
2019-04-03T18:12:57.572Z,21.07
2019-04-03T18:15:54.899Z,20.45
2019-04-03T18:18:51.987Z,20.48
2019-04-03T18:21:48.873Z,20.27
2019-04-03T18:24:45.194Z,21.30
2019-04-03T18:27:41.545Z,21.35
2019-04-03T18:30:40.573Z,20.95
2019-04-03T18:33:35.290Z,21.02
2019-04-03T18:36:31.338Z,20.72
2019-04-03T18:39:28.592Z,20.85
2019-04-03T18:42:25.860Z,20.90
2019-04-03T18:45:25.493Z,20.80
2019-04-03T18:48:19.956Z,20.30
2019-04-03T18:51:15.866Z,19.57
2019-04-03T18:54:11.578Z,20.27
2019-04-03T18:57:07.230Z,20.05
2019-04-03T19:00:02.625Z,20.10
2019-04-03T19:02:58.247Z,20.70
2019-04-03T19:05:53.305Z,18.90
2019-04-03T19:08:49.849Z,18.10
2019-04-03T19:11:44.483Z,19.98
2019-04-03T19:14:40.021Z,18.62
2019-04-03T19:17:34.930Z,20.00
2019-04-03T19:20:29.911Z,19.45
2019-04-03T19:23:24.987Z,19.60
2019-04-03T19:26:20.363Z,19.17
2019-04-03T19:29:15.498Z,18.48
2019-04-03T19:32:12.193Z,19.80
2019-04-03T19:35:09.119Z,19.42
2019-04-03T19:38:04.915Z,18.90
2019-04-03T19:41:00.301Z,18.85
2019-04-03T19:43:55.203Z,19.62
2019-04-03T19:46:53.583Z,19.37
2019-04-03T19:49:49.597Z,18.62
2019-04-03T19:52:45.133Z,18.67
2019-04-03T19:55:40.731Z,19.13
2019-04-03T19:58:37.129Z,18.53
2019-04-03T20:01:32.915Z,19.52
2019-04-03T20:04:28.343Z,19.45
2019-04-03T20:07:24.854Z,19.70
2019-04-03T20:10:20.344Z,19.80
2019-04-03T20:13:16.393Z,19.82
2019-04-03T20:16:11.963Z,19.97
2019-04-03T20:19:07.242Z,19.00
2019-04-03T20:22:02.622Z,18.30
2019-04-03T20:25:00.218Z,19.85
2019-04-03T20:27:56.820Z,19.42
2019-04-03T20:30:51.075Z,19.97
2019-04-03T20:33:46.161Z,18.90
2019-04-03T20:36:41.325Z,20.63
2019-04-03T20:39:36.311Z,20.32
2019-04-03T20:42:31.783Z,19.95
2019-04-03T20:45:26.846Z,20.47
2019-04-03T20:48:23.318Z,19.48
2019-04-03T20:51:19.202Z,20.43
2019-04-03T20:54:15.024Z,19.73
2019-04-03T20:57:13.311Z,18.20
2019-04-03T21:00:09.583Z,20.40
2019-04-03T21:03:06.131Z,19.75
2019-04-03T21:06:01.668Z,19.00
2019-04-03T21:08:59.469Z,19.43
2019-04-03T21:11:55.052Z,18.92
2019-04-03T21:14:51.239Z,20.60
2019-04-03T21:17:49.746Z,19.07
2019-04-03T21:20:44.271Z,19.87
2019-04-03T21:23:39.335Z,19.32
2019-04-03T21:26:37.661Z,20.08
2019-04-03T21:29:30.580Z,19.65
2019-04-03T21:32:26.924Z,19.07
2019-04-03T21:35:25.700Z,18.67
2019-04-03T21:38:21.658Z,19.07
2019-04-03T21:41:16.537Z,19.10
2019-04-03T21:44:12.504Z,19.57
2019-04-03T21:47:07.791Z,19.70
2019-04-03T21:50:03.878Z,21.62
2019-04-03T21:52:58.951Z,21.45
2019-04-03T21:55:54.847Z,19.25
2019-04-03T21:58:49.510Z,20.60
2019-04-03T22:01:45.447Z,20.40
2019-04-03T22:04:40.936Z,20.30
2019-04-03T22:07:36.394Z,20.00
2019-04-03T22:10:33.067Z,19.67
2019-04-03T22:13:27.802Z,20.77
2019-04-03T22:16:22.786Z,19.27
2019-04-03T22:19:17.967Z,20.50
2019-04-03T22:22:13.045Z,20.07
2019-04-03T22:25:09.039Z,21.25
2019-04-03T22:28:04.654Z,20.75
2019-04-03T22:30:59.444Z,21.27
2019-04-03T22:33:54.438Z,19.73
2019-04-03T22:36:49.324Z,20.10
2019-04-03T22:39:45.149Z,20.30
2019-04-03T22:42:40.460Z,20.20
2019-04-03T22:45:35.902Z,20.27
2019-04-03T22:48:30.669Z,21.12
2019-04-03T22:51:25.629Z,19.45
2019-04-03T22:54:21.057Z,20.90
2019-04-03T22:57:15.947Z,20.77
2019-04-03T23:00:11.723Z,20.17
2019-04-03T23:03:07.356Z,20.85
2019-04-03T23:06:02.730Z,20.37
2019-04-03T23:08:58.636Z,20.03
2019-04-03T23:11:53.977Z,20.88
2019-04-03T23:14:49.185Z,20.08
2019-04-03T23:17:44.801Z,20.70
2019-04-03T23:20:40.422Z,21.90
2019-04-03T23:23:35.328Z,22.05
2019-04-03T23:26:32.059Z,20.30
2019-04-03T23:29:27.197Z,19.40
2019-04-03T23:32:22.315Z,20.03
2019-04-03T23:35:17.068Z,20.87
2019-04-03T23:38:12.328Z,20.65
2019-04-03T23:41:07.068Z,20.35
2019-04-03T23:44:01.622Z,20.75
2019-04-03T23:46:56.483Z,21.05
2019-04-03T23:49:52.114Z,21.73
2019-04-03T23:52:47.236Z,21.42
2019-04-03T23:55:43.098Z,21.27
2019-04-03T23:58:39.930Z,21.20
